Time;durP1;ratioP1;P1;durP2;ratioP2;P2;SDS_P1;SDS_P2;PMS_P1;PMS_P2;Temp;Humidity;BMP_temperature;BMP_pressure;BME280_temperature;BME280_humidity;BME280_pressure;Samples;Min_cycle;Max_cycle;Signal;HPM_P1;HPM_P2
2022/09/28 00:01:17;;;;;;;4.78;3.38;;;20.20;99.90;;;;;;10115528;29;20671;-79
2022/09/28 00:06:23;;;;;;;5.40;3.60;;;20.20;99.90;;;;;;10116105;29;20251;-79
2022/09/28 00:11:27;;;;;;;4.13;3.28;;;20.20;99.90;;;;;;10133037;29;20616;-80
2022/09/28 00:16:33;;;;;;;4.22;3.42;;;20.20;99.90;;;;;;10115139;29;20239;-80
2022/09/28 00:21:37;;;;;;;4.20;3.75;;;20.10;99.90;;;;;;10131097;29;20296;-79
2022/09/28 00:26:44;;;;;;;5.55;3.95;;;20.20;99.90;;;;;;10114880;29;20260;-79
2022/09/28 00:31:51;;;;;;;3.55;3.00;;;20.20;99.90;;;;;;10114078;29;20216;-79
2022/09/28 00:36:57;;;;;;;4.85;3.88;;;20.10;99.90;;;;;;10099856;29;20233;-79
2022/09/28 00:42:02;;;;;;;4.18;3.03;;;20.20;99.90;;;;;;10130893;29;20304;-80
2022/09/28 00:47:38;;;;;;;4.75;3.67;;;20.20;99.90;;;;;;10078029;29;20259;-79
2022/09/28 00:52:51;;;;;;;5.22;3.70;;;20.20;99.90;;;;;;10113400;29;20244;-79
2022/09/28 00:57:57;;;;;;;3.78;3.38;;;20.20;99.90;;;;;;10114570;29;20236;-79
2022/09/28 01:03:00;;;;;;;3.55;3.10;;;20.10;99.90;;;;;;10112971;29;20586;-79
2022/09/28 01:08:04;;;;;;;3.65;3.20;;;20.20;99.90;;;;;;10096820;29;20259;-79
2022/09/28 01:13:07;;;;;;;3.85;2.95;;;20.20;99.90;;;;;;10112707;29;20307;-79
2022/09/28 01:18:17;;;;;;;3.88;3.30;;;20.10;99.90;;;;;;10130080;29;20736;-79
2022/09/28 01:23:38;;;;;;;4.18;3.25;;;20.20;99.70;;;;;;10113277;29;20252;-79
2022/09/28 01:28:44;;;;;;;3.15;2.85;;;20.20;99.60;;;;;;10113478;29;20322;-79
2022/09/28 01:33:56;;;;;;;3.30;3.00;;;20.10;99.50;;;;;;10112246;29;20236;-79
2022/09/28 01:39:06;;;;;;;3.75;2.72;;;20.10;99.50;;;;;;10129746;29;20243;-79
2022/09/28 01:44:14;;;;;;;3.50;2.90;;;20.10;99.60;;;;;;10112021;29;20312;-79
2022/09/28 01:49:25;;;;;;;10.13;2.97;;;20.10;99.30;;;;;;10111781;29;20256;-79
2022/09/28 01:54:36;;;;;;;3.65;3.15;;;20.10;99.30;;;;;;10111854;29;20291;-79
2022/09/28 01:59:48;;;;;;;4.45;2.92;;;20.10;99.20;;;;;;10110118;29;20339;-79
2022/09/28 02:04:58;;;;;;;3.42;2.85;;;20.10;99.10;;;;;;10127338;29;20312;-79
2022/09/28 02:10:08;;;;;;;3.22;2.30;;;20.10;99.00;;;;;;10111862;29;20279;-79
2022/09/28 02:15:17;;;;;;;2.90;2.60;;;20.10;98.90;;;;;;10111893;29;20303;-79
2022/09/28 02:20:21;;;;;;;3.13;2.50;;;20.10;98.80;;;;;;10109473;29;20240;-79
2022/09/28 02:25:43;;;;;;;2.63;2.33;;;20.10;98.70;;;;;;10129120;29;20240;-80
2022/09/28 02:30:46;;;;;;;4.40;2.70;;;20.10;98.50;;;;;;10110952;29;20785;-79
2022/09/28 02:35:50;;;;;;;3.55;3.22;;;20.10;98.30;;;;;;10110815;29;20248;-79
2022/09/28 02:41:13;;;;;;;3.15;2.45;;;20.10;98.30;;;;;;10109312;29;20331;-79
2022/09/28 02:46:27;;;;;;;3.45;2.65;;;20.00;98.10;;;;;;10111007;29;20268;-79
2022/09/28 02:51:49;;;;;;;3.67;2.80;;;20.10;98.10;;;;;;10112124;29;20780;-79
2022/09/28 02:57:10;;;;;;;4.13;2.83;;;20.00;97.90;;;;;;10107915;29;20239;-79
2022/09/28 03:02:30;;;;;;;3.58;2.80;;;20.00;97.70;;;;;;10114924;29;20247;-79
2022/09/28 03:08:00;;;;;;;4.60;2.95;;;20.00;97.60;;;;;;10117102;29;20284;-79
2022/09/28 03:13:04;;;;;;;4.07;3.25;;;20.00;97.70;;;;;;10113378;29;20236;-79
2022/09/28 03:18:07;;;;;;;3.60;2.83;;;20.00;97.60;;;;;;10117045;29;20275;-80
2022/09/28 03:23:10;;;;;;;2.95;2.63;;;20.00;97.40;;;;;;10115129;29;20251;-80
2022/09/28 03:28:28;;;;;;;3.08;2.58;;;20.00;97.40;;;;;;10116904;29;20251;-80
2022/09/28 03:33:32;;;;;;;4.60;2.38;;;19.90;97.60;;;;;;10104348;29;20297;-80
2022/09/28 03:38:34;;;;;;;3.72;2.50;;;20.00;97.20;;;;;;10093461;29;20240;-80
2022/09/28 03:43:37;;;;;;;4.03;2.55;;;19.90;97.10;;;;;;10096462;29;20724;-80
2022/09/28 03:48:40;;;;;;;4.47;2.88;;;20.00;96.90;;;;;;10082953;29;20248;-80
2022/09/28 03:53:44;;;;;;;3.05;2.50;;;20.00;96.80;;;;;;10113785;29;20252;-80
2022/09/28 03:58:47;;;;;;;3.85;3.10;;;20.00;96.70;;;;;;10115179;29;20240;-80
2022/09/28 04:03:56;;;;;;;4.22;2.78;;;19.90;96.50;;;;;;10114353;29;20731;-80
2022/09/28 04:08:59;;;;;;;3.72;2.50;;;20.00;96.30;;;;;;10114518;29;20339;-80
2022/09/28 04:14:03;;;;;;;4.20;3.05;;;20.00;96.30;;;;;;10092692;29;20265;-80
2022/09/28 04:19:06;;;;;;;4.80;3.33;;;19.90;96.10;;;;;;10095830;29;20243;-80
2022/09/28 04:24:35;;;;;;;14.53;7.20;;;7.40;99.90;;;;;;10107113;29;20299;-80
2022/09/28 04:29:41;;;;;;;22.30;10.30;;;;;;;;;;10085219;29;20259;-80
2022/09/28 04:34:45;;;;;;;27.30;13.73;;;4.80;99.90;;;;;;10094970;29;20290;-80
2022/09/28 04:39:47;;;;;;;63.17;23.57;;;4.20;99.90;;;;;;10088762;29;20259;-80
2022/09/28 04:44:53;;;;;;;45.87;22.63;;;4.20;99.90;;;;;;10112463;29;20669;-80
2022/09/28 04:49:56;;;;;;;34.83;19.67;;;4.20;99.90;;;;;;10113196;29;20631;-79
2022/09/28 04:55:13;;;;;;;20.33;12.80;;;4.20;99.90;;;;;;10112922;29;20648;-80
2022/09/28 05:00:16;;;;;;;17.27;10.63;;;4.20;99.90;;;;;;10098210;29;20688;-80
2022/09/28 05:05:31;;;;;;;20.77;11.70;;;4.20;99.90;;;;;;10113268;29;20208;-79
2022/09/28 05:11:04;;;;;;;8.20;5.07;;;4.20;99.90;;;;;;10146274;29;20648;-79
2022/09/28 05:16:08;;;;;;;7.83;4.23;;;13.20;99.90;;;;;;10111800;29;20289;-80
2022/09/28 05:21:28;;;;;;;11.30;4.60;;;16.20;99.90;;;;;;10111979;29;20215;-80
2022/09/28 05:26:30;;;;;;;6.10;4.30;;;17.70;99.90;;;;;;10124550;29;20360;-80
2022/09/28 05:31:33;;;;;;;6.87;4.90;;;18.40;99.90;;;;;;10098207;29;20244;-80
2022/09/28 05:36:44;;;;;;;11.73;4.53;;;18.80;99.90;;;;;;10139515;29;20242;-80
2022/09/28 05:41:47;;;;;;;7.47;4.47;;;19.20;99.90;;;;;;10111411;29;20320;-80
2022/09/28 05:46:51;;;;;;;7.10;4.40;;;19.40;99.90;;;;;;10077958;29;20256;-80
2022/09/28 05:51:53;;;;;;;7.47;4.50;;;19.40;99.90;;;;;;10086867;29;20292;-80
2022/09/28 05:56:56;;;;;;;6.70;4.33;;;19.50;99.90;;;;;;10095118;29;20697;-79
2022/09/28 06:01:59;;;;;;;8.77;5.60;;;19.50;99.90;;;;;;10075355;29;20304;-79
2022/09/28 06:07:01;;;;;;;5.50;4.43;;;19.50;96.00;;;;;;10073000;29;20316;-79
2022/09/28 06:12:04;;;;;;;5.90;4.55;;;19.60;95.30;;;;;;10089388;29;20779;-79
2022/09/28 06:17:15;;;;;;;7.87;5.27;;;18.70;95.10;;;;;;10091041;29;20671;-79
2022/09/28 06:22:23;;;;;;;6.40;4.70;;;17.70;94.20;;;;;;10122857;29;20252;-81
2022/09/28 06:28:00;;;;;;;5.80;3.70;;;18.00;96.10;;;;;;10098860;29;20260;-81
2022/09/28 06:33:04;;;;;;;5.40;3.63;;;18.60;97.50;;;;;;10135369;29;20284;-82
2022/09/28 06:38:07;;;;;;;8.40;4.30;;;18.90;98.70;;;;;;10123974;29;20246;-81
2022/09/28 06:43:14;;;;;;;6.30;3.83;;;19.20;99.80;;;;;;10129114;29;20255;-82
2022/09/28 06:48:35;;;;;;;5.63;4.68;;;19.40;99.90;;;;;;10113546;29;20707;-82
2022/09/28 06:53:39;;;;;;;5.13;4.43;;;19.60;99.90;;;;;;10124887;29;20241;-82
2022/09/28 06:58:53;;;;;;;6.07;4.88;;;19.70;99.90;;;;;;10079296;29;20248;-81
2022/09/28 07:03:56;;;;;;;7.00;4.57;;;19.80;99.90;;;;;;10088671;29;20256;-81
2022/09/28 07:09:17;;;;;;;7.22;5.07;;;19.80;99.90;;;;;;10105011;29;20260;-82
2022/09/28 07:14:56;;;;;;;4.93;4.43;;;19.90;99.90;;;;;;10149588;29;20678;-81
2022/09/28 07:20:03;;;;;;;7.18;5.15;;;20.00;99.90;;;;;;10115298;29;20245;-82
2022/09/28 07:25:17;;;;;;;5.38;4.45;;;19.90;99.90;;;;;;10114752;29;20240;-80
2022/09/28 07:30:38;;;;;;;7.97;4.30;;;19.80;99.90;;;;;;10128212;29;20260;-80
2022/09/28 07:35:54;;;;;;;10.23;3.97;;;19.00;99.90;;;;;;10117510;29;20240;-80
2022/09/28 07:41:10;;;;;;;7.13;3.97;;;19.30;99.30;;;;;;10116666;29;20268;-80
2022/09/28 07:46:18;;;;;;;10.32;4.10;;;19.30;97.60;;;;;;10101869;29;20243;-80
2022/09/28 07:51:34;;;;;;;4.45;3.35;;;19.50;97.70;;;;;;10103052;29;20244;-80
2022/09/28 07:56:57;;;;;;;4.30;3.20;;;19.60;97.40;;;;;;10116580;29;20709;-80
2022/09/28 08:02:31;;;;;;;3.53;2.92;;;19.60;97.10;;;;;;10111668;29;20270;-80
2022/09/28 08:07:37;;;;;;;7.57;2.92;;;19.80;96.70;;;;;;10115906;29;20670;-80
2022/09/28 08:12:42;;;;;;;4.15;3.13;;;19.90;96.30;;;;;;10115626;29;20201;-80
2022/09/28 08:17:59;;;;;;;4.18;3.30;;;19.60;97.30;;;;;;10143059;29;20243;-80
2022/09/28 08:23:08;;;;;;;5.22;2.83;;;19.70;97.20;;;;;;10115509;29;20248;-81
2022/09/28 08:28:14;;;;;;;4.80;3.28;;;19.90;96.80;;;;;;10100029;29;20327;-81
2022/09/28 08:33:20;;;;;;;4.25;2.38;;;20.00;96.30;;;;;;10114804;29;20240;-80
2022/09/28 08:38:24;;;;;;;6.28;4.22;;;19.70;96.90;;;;;;10115171;29;20248;-80
2022/09/28 08:43:57;;;;;;;5.60;2.83;;;19.60;96.80;;;;;;10134185;29;20723;-80
2022/09/28 08:49:29;;;;;;;5.90;4.72;;;19.00;98.90;;;;;;10127042;29;20719;-80
2022/09/28 08:54:59;;;;;;;4.30;3.33;;;19.10;98.40;;;;;;10131645;29;20240;-80
2022/09/28 09:00:30;;;;;;;4.93;3.33;;;19.40;98.50;;;;;;10100147;29;20763;-80
2022/09/28 09:06:03;;;;;;;6.60;4.80;;;19.10;99.60;;;;;;10113539;29;20264;-80
2022/09/28 09:11:43;;;;;;;7.63;6.55;;;18.50;99.90;;;;;;10113092;29;20300;-80
2022/09/28 09:16:49;;;;;;;4.03;2.97;;;18.30;98.00;;;;;;10097776;29;20693;-80
2022/09/28 09:22:24;;;;;;;4.32;3.85;;;19.20;99.90;;;;;;10117156;29;20204;-80
2022/09/28 09:27:45;;;;;;;5.80;4.80;;;19.00;99.60;;;;;;10112801;29;20267;-80
2022/09/28 09:33:26;;;;;;;3.45;2.67;;;19.40;98.00;;;;;;10112743;29;20853;-80
2022/09/28 09:38:54;;;;;;;4.30;3.58;;;20.00;97.20;;;;;;10129143;29;20295;-80
2022/09/28 09:44:46;;;;;;;3.28;2.45;;;19.80;97.30;;;;;;10131149;29;20263;-80
2022/09/28 09:50:29;;;;;;;3.85;2.80;;;20.10;96.50;;;;;;10116939;29;20858;-80
2022/09/28 09:55:40;;;;;;;3.28;2.90;;;20.30;96.20;;;;;;10111806;29;20216;-80
2022/09/28 10:01:03;;;;;;;2.42;2.17;;;20.20;96.10;;;;;;10114474;29;20247;-80
2022/09/28 10:06:32;;;;;;;3.35;2.50;;;20.20;96.20;;;;;;10137794;29;20279;-81
2022/09/28 10:11:41;;;;;;;3.58;3.00;;;19.70;97.40;;;;;;10105109;29;20803;-80
2022/09/28 10:16:47;;;;;;;3.42;3.13;;;20.30;96.20;;;;;;10120531;29;20248;-80
2022/09/28 10:22:04;;;;;;;3.20;2.90;;;19.60;93.60;;;;;;10119808;29;20771;-80
2022/09/28 10:27:21;;;;;;;3.17;2.63;;;19.30;98.90;;;;;;10104180;29;20296;-80
2022/09/28 10:32:27;;;;;;;3.10;2.30;;;20.20;96.70;;;;;;10119507;29;20699;-80
2022/09/28 10:37:31;;;;;;;2.47;2.28;;;20.20;96.40;;;;;;10118964;29;20791;-80
2022/09/28 10:42:43;;;;;;;2.28;2.08;;;20.20;96.00;;;;;;10119459;29;20653;-80
2022/09/28 10:47:46;;;;;;;3.05;2.35;;;20.20;96.00;;;;;;10118625;29;20264;-80
2022/09/28 10:52:50;;;;;;;2.53;2.33;;;20.30;95.90;;;;;;10118775;29;20256;-81
2022/09/28 10:58:24;;;;;;;2.63;2.00;;;20.20;96.00;;;;;;10135653;29;20236;-80
2022/09/28 11:03:29;;;;;;;5.82;2.20;;;20.30;95.70;;;;;;10118800;29;20216;-80
2022/09/28 11:08:42;;;;;;;2.78;2.50;;;20.40;95.40;;;;;;10118381;29;20303;-81
2022/09/28 11:13:55;;;;;;;3.50;2.67;;;20.40;95.40;;;;;;10117221;29;20244;-80
2022/09/28 11:19:19;;;;;;;2.67;2.03;;;20.30;95.50;;;;;;10117804;29;20209;-81
2022/09/28 11:24:24;;;;;;;2.08;1.88;;;20.30;95.50;;;;;;10102022;29;20243;-80
2022/09/28 11:29:40;;;;;;;2.47;2.20;;;20.30;95.50;;;;;;10118111;29;20343;-80
2022/09/28 11:35:15;;;;;;;2.55;2.10;;;20.30;95.50;;;;;;10121194;29;20562;-81
2022/09/28 11:40:28;;;;;;;2.03;1.73;;;20.20;95.90;;;;;;10116868;29;20272;-80
2022/09/28 11:45:53;;;;;;;2.63;2.42;;;20.20;96.00;;;;;;10117350;29;20311;-81
2022/09/28 11:51:04;;;;;;;3.00;2.28;;;20.30;95.70;;;;;;10117059;29;20273;-80
2022/09/28 11:56:37;;;;;;;2.67;2.42;;;20.30;95.60;;;;;;10116560;29;20307;-80
2022/09/28 12:01:57;;;;;;;1.52;1.42;;;20.30;95.40;;;;;;10116741;29;20663;-80
2022/09/28 12:07:52;;;;;;;3.22;2.60;;;20.20;93.20;;;;;;10116057;29;20244;-81
2022/09/28 12:13:24;;;;;;;2.97;2.22;;;20.00;96.50;;;;;;9975490;29;20242;-80
2022/09/28 12:18:48;;;;;;;4.78;2.67;;;20.20;95.90;;;;;;9959771;29;20258;-80
2022/09/28 12:23:55;;;;;;;3.65;2.45;;;20.30;95.50;;;;;;9973601;29;20738;-80
2022/09/28 12:29:02;;;;;;;2.50;2.28;;;20.20;93.60;;;;;;9974652;29;20355;-80
2022/09/28 12:34:04;;;;;;;2.03;1.83;;;20.20;95.60;;;;;;9974193;29;20246;-80
2022/09/28 12:39:28;;;;;;;3.67;2.90;;;20.20;95.70;;;;;;9974285;29;20243;-80
2022/09/28 12:44:50;;;;;;;2.30;2.10;;;19.30;97.00;;;;;;9988764;29;20773;-81
2022/09/28 12:50:07;;;;;;;2.53;1.83;;;19.90;96.90;;;;;;10048413;29;20260;-80
2022/09/28 12:55:29;;;;;;;2.15;1.95;;;20.10;96.40;;;;;;10078782;29;20297;-80
2022/09/28 13:00:44;;;;;;;2.17;1.98;;;20.10;96.10;;;;;;10092832;29;20320;-80
2022/09/28 13:06:07;;;;;;;2.63;2.42;;;20.10;96.10;;;;;;10076555;29;20261;-80
2022/09/28 13:11:24;;;;;;;3.20;2.00;;;20.00;96.50;;;;;;10091420;29;20268;-81
2022/09/28 13:16:49;;;;;;;3.05;2.13;;;20.00;96.50;;;;;;10092543;29;20236;-80
2022/09/28 13:22:02;;;;;;;2.45;2.25;;;20.10;96.30;;;;;;10092498;29;20240;-80
2022/09/28 13:27:20;;;;;;;2.50;1.85;;;20.10;96.20;;;;;;10092167;29;20237;-80
2022/09/28 13:32:25;;;;;;;4.45;3.85;;;20.10;96.10;;;;;;10091443;29;20262;-82
2022/09/28 13:37:28;;;;;;;4.63;2.85;;;18.90;96.50;;;;;;10073325;29;20655;-83
2022/09/28 13:42:53;;;;;;;5.30;2.83;;;19.30;99.70;;;;;;10075027;29;20303;-82
2022/09/28 13:48:22;;;;;;;3.73;2.43;;;19.70;99.90;;;;;;10091426;29;20680;-82
2022/09/28 13:53:36;;;;;;;3.97;2.50;;;19.80;99.90;;;;;;10091009;29;20715;-82
2022/09/28 13:58:47;;;;;;;2.85;2.25;;;19.60;99.90;;;;;;10090773;29;20683;-82
2022/09/28 14:04:20;;;;;;;3.00;2.08;;;19.70;99.70;;;;;;10074092;29;20756;-86
2022/09/28 14:09:39;;;;;;;3.95;2.53;;;19.60;99.90;;;;;;10090533;29;20308;-83
2022/09/28 14:14:50;;;;;;;2.30;1.83;;;20.00;99.90;;;;;;10074196;29;20261;-82
2022/09/28 14:20:03;;;;;;;2.97;2.10;;;20.20;99.90;;;;;;10090773;29;20232;-83
2022/09/28 14:25:09;;;;;;;4.47;2.33;;;20.20;99.90;;;;;;10090224;29;20665;-83
2022/09/28 14:30:11;;;;;;;2.28;1.90;;;20.30;99.90;;;;;;10073986;29;20256;-83
2022/09/28 14:35:31;;;;;;;3.55;2.00;;;20.30;99.90;;;;;;10073133;29;20245;-82
2022/09/28 14:41:10;;;;;;;2.00;1.80;;;20.30;99.90;;;;;;10094706;29;20331;-82
2022/09/28 14:46:21;;;;;;;2.10;1.55;;;20.30;99.90;;;;;;10152600;29;20239;-82
2022/09/28 14:51:34;;;;;;;2.33;1.88;;;20.30;99.90;;;;;;10154901;29;20310;-82
2022/09/28 14:56:42;;;;;;;1.77;1.67;;;20.30;99.90;;;;;;10174670;29;20276;-82
2022/09/28 15:01:59;;;;;;;3.72;2.65;;;20.40;99.90;;;;;;10120956;29;20299;-82
2022/09/28 15:07:02;;;;;;;2.58;2.33;;;20.40;99.90;;;;;;10117471;29;20644;-82
2022/09/28 15:12:17;;;;;;;2.30;1.85;;;20.30;99.90;;;;;;10150141;29;20661;-83
2022/09/28 15:17:23;;;;;;;2.90;2.13;;;20.40;99.90;;;;;;10171989;29;20246;-83
2022/09/28 15:22:26;;;;;;;2.30;2.10;;;20.30;99.90;;;;;;10161506;29;20240;-82
2022/09/28 15:27:36;;;;;;;1.80;1.60;;;20.40;99.90;;;;;;10134186;29;20687;-82
2022/09/28 15:32:39;;;;;;;2.75;2.10;;;20.50;99.90;;;;;;10134363;29;20307;-82
2022/09/28 15:37:43;;;;;;;2.15;1.95;;;20.40;99.90;;;;;;10117744;29;20260;-82
2022/09/28 15:42:46;;;;;;;2.70;2.20;;;20.40;99.90;;;;;;10133570;29;20379;-82
2022/09/28 15:47:49;;;;;;;2.58;2.00;;;20.30;99.90;;;;;;10100991;29;20642;-82
2022/09/28 15:52:55;;;;;;;2.85;1.90;;;20.30;99.90;;;;;;10132357;29;20248;-82
2022/09/28 15:58:06;;;;;;;2.15;1.95;;;20.20;99.90;;;;;;10132124;29;20232;-82
2022/09/28 16:03:08;;;;;;;2.38;2.17;;;20.30;99.90;;;;;;10116358;29;20691;-82
2022/09/28 16:08:35;;;;;;;2.55;1.88;;;20.30;99.90;;;;;;10132286;29;20678;-82
2022/09/28 16:14:00;;;;;;;2.50;2.00;;;20.30;99.90;;;;;;10115097;29;20231;-82
2022/09/28 16:19:04;;;;;;;2.40;2.20;;;20.20;99.90;;;;;;10115746;29;20279;-82
2022/09/28 16:24:22;;;;;;;2.95;2.15;;;20.20;99.90;;;;;;10115441;29;20260;-82
2022/09/28 16:29:35;;;;;;;3.25;2.30;;;20.20;99.90;;;;;;10131318;29;20263;-82
2022/09/28 16:34:37;;;;;;;2.47;2.28;;;20.20;99.90;;;;;;10101475;29;20292;-82
2022/09/28 16:39:40;;;;;;;2.88;2.55;;;20.10;99.90;;;;;;10114318;29;20646;-82
2022/09/28 16:44:42;;;;;;;2.17;1.98;;;20.20;99.90;;;;;;10131358;29;20736;-82
2022/09/28 16:49:46;;;;;;;2.30;1.98;;;20.20;99.90;;;;;;10099363;29;20263;-82
2022/09/28 17:00:42;;;;;;;2.45;2.25;;;20.20;99.90;;;;;;10113340;29;20654;-82
2022/09/28 17:05:46;;;;;;;2.30;2.05;;;20.20;99.90;;;;;;10110609;29;20664;-82
2022/09/28 17:10:53;;;;;;;2.40;2.20;;;20.20;99.90;;;;;;10121813;29;20307;-82
2022/09/28 17:16:19;;;;;;;3.22;2.80;;;20.20;99.90;;;;;;10121689;29;21525;-82
2022/09/28 17:21:43;;;;;;;3.05;2.75;;;20.10;99.90;;;;;;10122181;29;20567;-82
2022/09/28 17:26:48;;;;;;;2.47;2.25;;;20.10;99.90;;;;;;10104364;29;20348;-82
2022/09/28 17:31:50;;;;;;;3.22;2.65;;;20.10;99.90;;;;;;10103246;29;20350;-82
2022/09/28 17:36:53;;;;;;;3.38;2.40;;;20.10;99.90;;;;;;10104289;29;20232;-82
2022/09/28 17:41:55;;;;;;;5.15;2.78;;;20.10;99.90;;;;;;10127718;29;20720;-83
2022/09/28 17:46:59;;;;;;;3.00;2.40;;;20.10;99.90;;;;;;10096607;29;20289;-82
2022/09/28 17:52:04;;;;;;;3.55;2.70;;;20.10;99.90;;;;;;10128795;29;20259;-82
2022/09/28 17:57:08;;;;;;;3.05;2.50;;;20.20;99.90;;;;;;10129017;29;20288;-81
2022/09/28 18:02:11;;;;;;;4.15;2.90;;;20.10;99.90;;;;;;10135271;29;20675;-82
2022/09/28 18:07:13;;;;;;;3.80;3.15;;;20.20;99.90;;;;;;10128814;29;20255;-81
2022/09/28 18:12:16;;;;;;;3.38;3.08;;;20.20;99.90;;;;;;10127641;29;20315;-82
2022/09/28 18:17:18;;;;;;;3.30;3.00;;;20.20;99.90;;;;;;10147702;29;20263;-82
2022/09/28 18:22:21;;;;;;;3.35;3.05;;;20.20;99.90;;;;;;10112863;29;20710;-81
2022/09/28 18:27:26;;;;;;;3.88;3.35;;;20.20;99.90;;;;;;10118292;29;20240;-81
2022/09/28 18:32:28;;;;;;;4.10;3.30;;;20.20;99.90;;;;;;10118839;29;20260;-80
2022/09/28 18:37:35;;;;;;;4.00;3.60;;;20.20;99.90;;;;;;10134868;29;20572;-81
2022/09/28 18:42:38;;;;;;;3.90;3.50;;;20.20;99.90;;;;;;10117383;29;20285;-81
2022/09/28 18:47:41;;;;;;;4.82;3.88;;;20.10;99.90;;;;;;10134265;29;20273;-81
2022/09/28 18:52:46;;;;;;;11.93;9.50;;;20.10;99.90;;;;;;10124566;29;20727;-81
2022/09/28 18:57:48;;;;;;;11.18;7.90;;;19.70;98.60;;;;;;10130949;29;20244;-81
2022/09/28 19:02:51;;;;;;;11.02;7.38;;;19.50;99.50;;;;;;10134315;29;20684;-81
2022/09/28 19:07:54;;;;;;;22.92;14.98;;;16.60;99.90;;;;;;10113268;29;20264;-81
2022/09/28 19:12:56;;;;;;;14.03;8.67;;;15.30;99.90;;;;;;10077900;29;20252;-81
2022/09/28 19:17:59;;;;;;;12.48;8.80;;;18.40;99.90;;;;;;10116899;29;20689;-81
2022/09/28 19:23:02;;;;;;;8.88;7.05;;;19.30;99.90;;;;;;10115439;29;20244;-81
2022/09/28 19:28:05;;;;;;;8.48;7.30;;;19.60;99.90;;;;;;10133114;29;20685;-81
2022/09/28 19:33:07;;;;;;;10.77;7.45;;;19.80;99.90;;;;;;10132787;29;20722;-81
2022/09/28 19:38:10;;;;;;;9.80;7.32;;;19.90;99.90;;;;;;10132076;29;20260;-81
2022/09/28 19:43:13;;;;;;;11.02;7.43;;;20.00;99.90;;;;;;10132455;29;20271;-81
2022/09/28 19:48:15;;;;;;;10.98;7.60;;;20.00;99.90;;;;;;10133067;29;20861;-81
2022/09/28 19:53:18;;;;;;;9.02;7.60;;;20.00;99.90;;;;;;10129216;29;20687;-80
2022/09/28 19:58:27;;;;;;;10.85;8.05;;;20.00;99.90;;;;;;10132428;29;20236;-80
2022/09/28 20:03:30;;;;;;;10.90;8.15;;;20.00;99.90;;;;;;10124519;29;20274;-82
2022/09/28 20:08:32;;;;;;;11.18;7.82;;;20.00;99.90;;;;;;10114697;29;20673;-81
2022/09/28 20:13:36;;;;;;;8.45;7.57;;;19.90;99.90;;;;;;10131567;29;20677;-81
2022/09/28 20:18:48;;;;;;;11.93;8.02;;;19.90;99.90;;;;;;9772531;29;10000123;-81
2022/09/28 20:23:58;;;;;;;9.50;7.70;;;19.90;99.90;;;;;;10123634;29;20488;-81
2022/09/28 20:29:00;;;;;;;8.85;6.95;;;19.90;99.90;;;;;;10119863;29;20256;-81
2022/09/28 20:34:06;;;;;;;12.68;7.68;;;19.90;99.90;;;;;;10126552;29;20255;-81
2022/09/28 20:39:09;;;;;;;9.60;7.15;;;19.90;99.90;;;;;;10136698;29;20235;-81
2022/09/28 20:44:12;;;;;;;8.85;7.03;;;19.90;99.90;;;;;;10115365;29;20264;-81
2022/09/28 20:49:14;;;;;;;9.10;7.20;;;19.90;99.90;;;;;;10087564;29;20756;-81
2022/09/28 20:54:17;;;;;;;9.80;7.70;;;19.80;99.90;;;;;;10085225;29;20610;-82
2022/09/28 20:59:23;;;;;;;10.73;8.05;;;19.90;99.90;;;;;;10055806;29;20268;-82
2022/09/28 21:04:25;;;;;;;8.45;7.45;;;19.90;99.90;;;;;;10090668;29;20272;-82
2022/09/28 21:09:30;;;;;;;7.78;6.93;;;19.90;99.90;;;;;;10090742;29;20237;-81
2022/09/28 21:14:33;;;;;;;11.63;8.15;;;19.90;99.90;;;;;;10091613;29;20229;-81
2022/09/28 21:19:35;;;;;;;9.27;7.45;;;19.80;99.90;;;;;;10089781;29;20240;-81
2022/09/28 21:24:38;;;;;;;9.00;7.05;;;19.80;99.90;;;;;;10073646;29;20237;-81
2022/09/28 21:29:40;;;;;;;8.02;7.03;;;19.70;99.90;;;;;;10088987;29;20751;-82
2022/09/28 21:34:43;;;;;;;9.23;6.90;;;19.80;99.90;;;;;;10078662;29;20232;-81
2022/09/28 21:39:45;;;;;;;8.32;6.72;;;19.80;99.90;;;;;;10074183;29;20205;-81
2022/09/28 21:44:48;;;;;;;9.02;7.22;;;19.80;99.80;;;;;;10110285;29;20263;-81
2022/09/28 21:49:50;;;;;;;6.90;6.10;;;19.80;99.80;;;;;;10112640;29;20680;-81
2022/09/28 21:54:52;;;;;;;8.15;6.75;;;19.80;99.90;;;;;;10128904;29;20287;-81
2022/09/28 22:00:02;;;;;;;8.02;6.47;;;19.70;99.90;;;;;;10140468;29;20358;-81
2022/09/28 22:05:06;;;;;;;8.35;6.82;;;19.70;99.90;;;;;;10126930;29;20231;-81
2022/09/28 22:10:11;;;;;;;8.27;7.10;;;19.70;99.90;;;;;;10142006;29;20294;-81
2022/09/28 22:15:14;;;;;;;7.57;6.18;;;19.70;99.80;;;;;;10123208;29;20291;-81
2022/09/28 22:20:16;;;;;;;8.07;6.82;;;19.70;99.70;;;;;;10141642;29;20236;-81
2022/09/28 22:25:19;;;;;;;8.02;6.32;;;19.80;99.60;;;;;;10125009;29;20299;-82
2022/09/28 22:30:21;;;;;;;8.38;6.57;;;19.70;99.60;;;;;;10140747;29;20755;-81
2022/09/28 22:35:23;;;;;;;8.88;6.97;;;19.80;99.50;;;;;;10141607;29;20236;-81
2022/09/28 22:40:26;;;;;;;10.07;6.32;;;19.80;99.50;;;;;;10137755;29;20264;-81
2022/09/28 22:45:29;;;;;;;7.60;6.68;;;19.80;99.40;;;;;;10100014;29;20300;-81
2022/09/28 22:50:31;;;;;;;6.57;5.50;;;19.80;99.30;;;;;;10102337;29;20264;-81
2022/09/28 22:55:33;;;;;;;8.02;5.43;;;19.80;99.30;;;;;;10086157;29;20240;-81
2022/09/28 23:00:36;;;;;;;8.68;6.10;;;19.80;99.20;;;;;;10101332;29;20269;-81
2022/09/28 23:05:38;;;;;;;6.65;5.95;;;19.80;99.20;;;;;;10102469;29;20240;-82
2022/09/28 23:10:41;;;;;;;6.10;5.40;;;19.80;99.10;;;;;;10097202;29;20328;-81
2022/09/28 23:15:56;;;;;;;8.13;6.00;;;19.80;99.00;;;;;;10077992;29;20232;-81
2022/09/28 23:21:04;;;;;;;6.55;5.25;;;19.80;99.10;;;;;;10096024;29;20244;-81
2022/09/28 23:26:15;;;;;;;7.50;6.05;;;19.80;99.10;;;;;;10094957;29;20690;-81
2022/09/28 23:31:21;;;;;;;8.40;5.60;;;19.70;99.10;;;;;;10078219;29;20264;-81
2022/09/28 23:36:24;;;;;;;7.13;5.32;;;19.80;99.10;;;;;;10078700;29;20737;-81
2022/09/28 23:41:27;;;;;;;6.88;6.10;;;19.80;98.90;;;;;;10104751;29;20304;-81
2022/09/28 23:46:29;;;;;;;6.00;5.40;;;19.80;99.10;;;;;;10116059;29;20204;-81
2022/09/28 23:51:31;;;;;;;7.97;6.18;;;19.80;98.80;;;;;;10134250;29;20256;-81
2022/09/28 23:56:34;;;;;;;5.65;5.15;;;19.80;98.70;;;;;;10116197;29;20217;-81
